createdAt,value
2023-05-10T00:02:17.194Z,102147.56
2023-05-10T00:04:45.234Z,102147.36
2023-05-10T00:07:13.306Z,102146.82
2023-05-10T00:09:41.477Z,102147.86
2023-05-10T00:12:09.552Z,102148.73
2023-05-10T00:14:37.519Z,102148.18
2023-05-10T00:17:05.505Z,102147.29
2023-05-10T00:19:33.672Z,102146.59
2023-05-10T00:22:01.734Z,102148.15
2023-05-10T00:24:29.995Z,102146.77
2023-05-10T00:26:58.075Z,102148.17
2023-05-10T00:29:26.046Z,102146.77
2023-05-10T00:31:54.660Z,102144.48
2023-05-10T00:34:22.671Z,102149.01
2023-05-10T00:36:50.709Z,102148.13
2023-05-10T00:39:18.779Z,102146.90
2023-05-10T00:41:47.069Z,102145.48
2023-05-10T00:44:15.154Z,102146.50
2023-05-10T00:46:43.666Z,102143.88
2023-05-10T00:49:12.277Z,102146.65
2023-05-10T00:51:40.602Z,102143.98
2023-05-10T00:54:08.851Z,102146.76
2023-05-10T00:56:37.888Z,102149.54
2023-05-10T00:59:05.960Z,102149.55
2023-05-10T01:01:34.348Z,102149.71
2023-05-10T01:04:04.217Z,102150.59
2023-05-10T01:06:32.416Z,102150.38
2023-05-10T01:09:00.500Z,102147.77
2023-05-10T01:11:28.781Z,102145.69
2023-05-10T01:13:58.874Z,102144.98
2023-05-10T01:16:28.046Z,102145.84
2023-05-10T01:18:56.578Z,102142.00
2023-05-10T01:21:39.325Z,102140.25
2023-05-10T01:24:44.113Z,102137.91
2023-05-10T01:27:49.157Z,102135.05
2023-05-10T01:30:43.089Z,102136.00
2023-05-10T01:33:16.963Z,102135.77
2023-05-10T01:36:04.314Z,102133.98
2023-05-10T01:38:52.911Z,102132.56
2023-05-10T01:41:50.260Z,102133.73
2023-05-10T01:44:18.959Z,102132.10
2023-05-10T01:46:58.898Z,102133.51
2023-05-10T01:49:32.014Z,102132.41
2023-05-10T01:52:07.532Z,102134.29
2023-05-10T01:54:39.792Z,102128.31
2023-05-10T01:57:11.549Z,102125.30
2023-05-10T01:59:44.646Z,102128.39
2023-05-10T02:02:14.658Z,102129.10
2023-05-10T02:04:44.094Z,102128.05
2023-05-10T02:07:14.296Z,102127.02
2023-05-10T02:09:48.515Z,102122.83
2023-05-10T02:12:19.025Z,102122.11
2023-05-10T02:14:48.962Z,102119.48
2023-05-10T02:17:17.956Z,102120.52
2023-05-10T02:19:48.481Z,102119.64
2023-05-10T02:22:18.124Z,102122.05
2023-05-10T02:24:48.286Z,102121.67
2023-05-10T02:27:18.409Z,102113.39
2023-05-10T02:29:48.009Z,102113.73
2023-05-10T02:32:18.908Z,102110.05
2023-05-10T02:34:53.022Z,102108.97
2023-05-10T02:37:23.067Z,102112.80
2023-05-10T02:39:53.606Z,102111.71
2023-05-10T02:42:27.513Z,102110.29
2023-05-10T02:45:00.668Z,102110.45
2023-05-10T02:47:30.246Z,102109.23
2023-05-10T02:49:58.476Z,102108.70
2023-05-10T02:52:30.598Z,102108.49
2023-05-10T02:55:04.420Z,102109.00
2023-05-10T02:57:40.014Z,102112.95
2023-05-10T03:00:08.567Z,102113.98
2023-05-10T03:02:37.590Z,102112.98
2023-05-10T03:05:06.568Z,102109.70
2023-05-10T03:07:35.138Z,102112.90
2023-05-10T03:10:04.580Z,102109.64
2023-05-10T03:12:49.748Z,102114.36
2023-05-10T03:15:40.039Z,102112.29
2023-05-10T03:18:16.730Z,102109.12
2023-05-10T03:20:51.633Z,102109.99
2023-05-10T03:23:19.996Z,102106.36
2023-05-10T03:25:50.554Z,102104.64
2023-05-10T03:28:20.170Z,102105.89
2023-05-10T03:30:50.250Z,102106.27
2023-05-10T03:33:18.359Z,102105.44
2023-05-10T03:35:47.882Z,102103.20
2023-05-10T03:38:16.012Z,102107.08
2023-05-10T03:40:44.023Z,102105.55
2023-05-10T03:43:12.034Z,102111.16
2023-05-10T03:45:40.101Z,102113.70
2023-05-10T03:48:08.401Z,102110.25
2023-05-10T03:50:36.550Z,102111.89
2023-05-10T03:53:04.726Z,102112.30
2023-05-10T03:55:35.662Z,102111.31
2023-05-10T03:58:03.831Z,102110.66
2023-05-10T04:00:32.682Z,102111.02
2023-05-10T04:03:01.888Z,102110.42
2023-05-10T04:05:30.555Z,102109.61
2023-05-10T04:07:58.578Z,102110.94
2023-05-10T04:10:26.651Z,102114.87
2023-05-10T04:12:54.816Z,102113.90
2023-05-10T04:15:22.895Z,102114.21
2023-05-10T04:17:51.568Z,102107.84
2023-05-10T04:20:19.776Z,102105.83
2023-05-10T04:22:48.025Z,102104.30
2023-05-10T04:25:16.102Z,102097.10
2023-05-10T04:27:44.712Z,102095.98
2023-05-10T04:30:13.298Z,102098.45
2023-05-10T04:32:41.326Z,102098.88
2023-05-10T04:35:11.170Z,102099.67
2023-05-10T04:37:39.123Z,102094.52
2023-05-10T04:40:08.280Z,102087.64
2023-05-10T04:42:36.266Z,102092.96
2023-05-10T04:45:04.884Z,102091.45
2023-05-10T04:47:33.727Z,102088.85
2023-05-10T04:50:02.003Z,102087.96
2023-05-10T04:52:30.084Z,102084.92
2023-05-10T04:54:58.154Z,102087.84
2023-05-10T04:57:26.125Z,102085.34
2023-05-10T04:59:54.118Z,102081.23
2023-05-10T05:02:22.182Z,102082.88
2023-05-10T05:04:50.845Z,102082.83
2023-05-10T05:07:18.886Z,102084.07
2023-05-10T05:09:46.884Z,102084.66
2023-05-10T05:12:15.372Z,102083.09
2023-05-10T05:14:43.538Z,102080.20
2023-05-10T05:17:11.613Z,102084.52
2023-05-10T05:19:39.679Z,102088.89
2023-05-10T05:22:09.017Z,102086.09
2023-05-10T05:24:39.261Z,102086.01
2023-05-10T05:27:07.675Z,102080.32
2023-05-10T05:29:36.023Z,102078.40
2023-05-10T05:32:04.475Z,102076.12
2023-05-10T05:34:32.714Z,102075.52
2023-05-10T05:37:00.879Z,102073.70
2023-05-10T05:39:28.949Z,102074.80
2023-05-10T05:41:57.063Z,102073.23
2023-05-10T05:44:25.090Z,102074.77
2023-05-10T05:46:53.163Z,102075.72
2023-05-10T05:49:21.279Z,102075.04
2023-05-10T05:51:50.838Z,102069.67
2023-05-10T05:54:18.910Z,102075.02
2023-05-10T05:56:46.878Z,102070.90
2023-05-10T05:59:14.862Z,102068.27
2023-05-10T06:01:42.932Z,102065.59
2023-05-10T06:04:11.600Z,102065.09
2023-05-10T06:06:39.776Z,102059.46
2023-05-10T06:09:07.715Z,102064.38
2023-05-10T06:11:35.968Z,102067.91
2023-05-10T06:14:05.742Z,102067.63
2023-05-10T06:16:34.115Z,102062.06
2023-05-10T06:19:02.462Z,102060.02
2023-05-10T06:21:31.164Z,102063.58
2023-05-10T06:23:59.348Z,102063.91
2023-05-10T06:26:27.410Z,102061.64
2023-05-10T06:28:55.490Z,102067.91
2023-05-10T06:31:23.640Z,102060.23
2023-05-10T06:33:52.362Z,102060.64
2023-05-10T06:36:21.394Z,102061.81
2023-05-10T06:38:49.765Z,102054.71
2023-05-10T06:41:18.302Z,102057.70
2023-05-10T06:43:46.549Z,102069.77
2023-05-10T06:46:14.664Z,102067.68
2023-05-10T06:48:42.711Z,102058.27
2023-05-10T06:51:10.780Z,102058.76
2023-05-10T06:53:38.768Z,102059.17
2023-05-10T06:56:06.933Z,102057.45
2023-05-10T06:58:34.946Z,102062.61
2023-05-10T07:01:04.725Z,102061.58
2023-05-10T07:03:33.435Z,102065.30
2023-05-10T07:06:04.312Z,102066.52
2023-05-10T07:08:33.033Z,102063.08
2023-05-10T07:11:05.898Z,102068.38
2023-05-10T07:13:35.207Z,102070.77
2023-05-10T07:16:04.116Z,102065.48
2023-05-10T07:18:32.336Z,102060.98
2023-05-10T07:21:00.514Z,102064.02
2023-05-10T07:23:29.128Z,102063.57
2023-05-10T07:25:58.732Z,102064.14
2023-05-10T07:28:26.986Z,102062.89
2023-05-10T07:30:55.013Z,102063.27
2023-05-10T07:33:23.157Z,102053.67
2023-05-10T07:35:51.413Z,102058.18
2023-05-10T07:38:19.480Z,102055.85
2023-05-10T07:40:47.472Z,102054.02
2023-05-10T07:43:15.826Z,102059.70
2023-05-10T07:45:44.581Z,102057.02
2023-05-10T07:48:12.808Z,102053.91
2023-05-10T07:50:40.953Z,102050.20
2023-05-10T07:53:09.020Z,102056.96
2023-05-10T07:55:37.605Z,102058.24
2023-05-10T07:58:05.691Z,102054.58
2023-05-10T08:00:33.968Z,102056.14
2023-05-10T08:03:02.167Z,102063.73
2023-05-10T08:05:30.599Z,102064.69
2023-05-10T08:07:58.635Z,102062.05
2023-05-10T08:10:26.952Z,102055.39
2023-05-10T08:12:55.016Z,102057.88
2023-05-10T08:15:23.204Z,102050.26
2023-05-10T08:17:51.647Z,102050.42
2023-05-10T08:20:20.306Z,102050.04
2023-05-10T08:22:49.940Z,102050.86
2023-05-10T08:25:19.857Z,102056.41
2023-05-10T08:27:48.187Z,102052.86
2023-05-10T08:30:16.334Z,102044.33
2023-05-10T08:32:44.398Z,102058.52
2023-05-10T08:35:12.384Z,102054.04
2023-05-10T08:37:40.453Z,102051.23
2023-05-10T08:40:12.707Z,102049.08
2023-05-10T08:42:46.675Z,102050.30
2023-05-10T08:45:15.896Z,102051.72
2023-05-10T08:47:44.552Z,102048.95
2023-05-10T08:50:13.059Z,102056.63
2023-05-10T08:52:42.576Z,102045.70
2023-05-10T08:55:10.863Z,102045.11
2023-05-10T08:57:39.335Z,102044.75
2023-05-10T09:00:09.529Z,102049.16
2023-05-10T09:02:38.356Z,102039.46
2023-05-10T09:05:07.300Z,102047.16
2023-05-10T09:07:36.357Z,102043.15
2023-05-10T09:10:06.399Z,102036.05
2023-05-10T09:12:34.825Z,102038.34
2023-05-10T09:15:03.506Z,102040.89
2023-05-10T09:17:31.863Z,102033.05
2023-05-10T09:20:08.145Z,102032.52
2023-05-10T09:22:36.326Z,102032.14
2023-05-10T09:25:09.612Z,102034.77
2023-05-10T09:27:39.747Z,102033.35
2023-05-10T09:30:09.095Z,102026.41
2023-05-10T09:32:44.999Z,102022.05
2023-05-10T09:35:19.264Z,102024.33
2023-05-10T09:37:50.369Z,102018.71
2023-05-10T09:40:29.259Z,102024.11
2023-05-10T09:42:59.405Z,102013.66
2023-05-10T09:45:30.427Z,102015.15
2023-05-10T09:48:00.363Z,102017.55
2023-05-10T09:50:29.632Z,102020.29
2023-05-10T09:53:00.145Z,102009.30
2023-05-10T09:55:47.831Z,102006.02
2023-05-10T09:58:16.649Z,102008.67
2023-05-10T10:00:48.491Z,102006.50
2023-05-10T10:03:21.937Z,102000.09
2023-05-10T10:05:50.461Z,102003.88
2023-05-10T10:08:18.801Z,102000.41
2023-05-10T10:10:48.142Z,101997.58
2023-05-10T10:13:16.895Z,101988.02
2023-05-10T10:15:45.903Z,101989.46
2023-05-10T10:18:18.054Z,101984.61
2023-05-10T10:20:47.036Z,101981.22
2023-05-10T10:23:17.388Z,101970.66
2023-05-10T10:25:49.955Z,101977.71
2023-05-10T10:28:36.856Z,101967.95
2023-05-10T10:31:35.812Z,101970.94
2023-05-10T10:34:07.948Z,101978.54
2023-05-10T10:36:46.560Z,101967.24
2023-05-10T10:39:15.886Z,101955.89
2023-05-10T10:41:54.441Z,101953.81
2023-05-10T10:44:34.944Z,101953.85
2023-05-10T10:47:13.460Z,101951.00
2023-05-10T10:49:44.710Z,101954.52
2023-05-10T10:52:47.656Z,101957.48
2023-05-10T10:55:19.667Z,101953.70
2023-05-10T10:57:54.664Z,101947.84
2023-05-10T11:00:25.582Z,101948.89
2023-05-10T11:03:08.728Z,101937.91
2023-05-10T11:05:42.799Z,101953.30
2023-05-10T11:08:14.069Z,101942.89
2023-05-10T11:10:53.280Z,101935.16
2023-05-10T11:13:42.067Z,101936.77
2023-05-10T11:16:26.649Z,101938.35
2023-05-10T11:18:55.243Z,101932.44
2023-05-10T11:21:23.832Z,101934.42
2023-05-10T11:23:58.672Z,101931.89
2023-05-10T11:26:32.530Z,101930.20
2023-05-10T11:29:03.044Z,101925.66
2023-05-10T11:31:31.273Z,101931.73
2023-05-10T11:34:04.519Z,101924.48
2023-05-10T11:36:37.240Z,101925.69
2023-05-10T11:39:06.164Z,101933.18
2023-05-10T11:41:34.697Z,101921.58
2023-05-10T11:44:03.338Z,101925.34
2023-05-10T11:46:31.368Z,101920.77
2023-05-10T11:49:10.781Z,101920.88
2023-05-10T11:51:40.526Z,101921.84
2023-05-10T11:54:10.688Z,101919.36
2023-05-10T11:56:40.412Z,101917.57
2023-05-10T11:59:09.424Z,101914.38
2023-05-10T12:01:37.826Z,101912.03
2023-05-10T12:04:06.228Z,101912.73
2023-05-10T12:06:41.604Z,101912.55
2023-05-10T12:09:09.956Z,101913.88
2023-05-10T12:11:44.009Z,101913.56
2023-05-10T12:14:12.958Z,101909.56
2023-05-10T12:16:41.655Z,101903.66
2023-05-10T12:19:09.891Z,101904.06
2023-05-10T12:21:40.178Z,101901.95
2023-05-10T12:24:08.690Z,101898.95
2023-05-10T12:26:36.780Z,101897.02
2023-05-10T12:29:19.805Z,101902.14
2023-05-10T12:31:55.048Z,101897.41
2023-05-10T12:34:34.000Z,101902.73
2023-05-10T12:37:03.714Z,101894.91
2023-05-10T12:39:42.401Z,101896.61
2023-05-10T12:42:11.613Z,101907.45
2023-05-10T12:44:40.854Z,101899.31
2023-05-10T12:47:09.298Z,101897.36
2023-05-10T12:49:37.245Z,101902.15
2023-05-10T12:52:05.246Z,101896.75
2023-05-10T12:54:33.277Z,101893.28
2023-05-10T12:57:01.251Z,101901.98
2023-05-10T12:59:29.268Z,101899.13
2023-05-10T13:01:58.730Z,101906.85
2023-05-10T13:04:26.864Z,101903.13
2023-05-10T13:06:59.473Z,101898.91
2023-05-10T13:09:29.589Z,101896.69
2023-05-10T13:11:57.876Z,101891.04
2023-05-10T13:14:26.713Z,101891.30
2023-05-10T13:16:55.118Z,101895.43
2023-05-10T13:19:23.092Z,101895.77
2023-05-10T13:21:51.362Z,101885.63
2023-05-10T13:24:19.338Z,101889.91
2023-05-10T13:26:47.311Z,101890.20
2023-05-10T13:29:15.283Z,101886.02
2023-05-10T13:31:43.270Z,101876.98
2023-05-10T13:34:11.316Z,101875.48
2023-05-10T13:36:39.528Z,101875.73
2023-05-10T13:39:07.519Z,101869.88
2023-05-10T13:41:35.622Z,101867.27
2023-05-10T13:44:03.803Z,101871.70
2023-05-10T13:46:32.065Z,101863.30
2023-05-10T13:49:00.266Z,101865.48
2023-05-10T13:51:28.178Z,101871.02
2023-05-10T13:53:56.192Z,101870.45
2023-05-10T13:56:24.250Z,101872.15
2023-05-10T13:58:52.484Z,101871.92
2023-05-10T14:01:20.859Z,101866.20
2023-05-10T14:03:49.277Z,101864.45
2023-05-10T14:06:17.355Z,101864.06
2023-05-10T14:08:45.268Z,101862.41
2023-05-10T14:11:13.971Z,101855.44
2023-05-10T14:13:42.113Z,101855.46
2023-05-10T14:16:10.200Z,101858.11
2023-05-10T14:18:38.895Z,101853.46
2023-05-10T14:21:07.431Z,101853.30
2023-05-10T14:23:35.320Z,101853.13
2023-05-10T14:26:04.070Z,101854.25
2023-05-10T14:28:32.035Z,101851.77
2023-05-10T14:31:00.209Z,101848.52
2023-05-10T14:33:28.112Z,101849.95
2023-05-10T14:35:57.948Z,101846.67
2023-05-10T14:38:25.952Z,101848.53
2023-05-10T14:40:53.882Z,101843.67
2023-05-10T14:43:22.035Z,101839.34
2023-05-10T14:45:50.053Z,101836.56
2023-05-10T14:48:18.559Z,101840.09
2023-05-10T14:50:47.279Z,101838.63
2023-05-10T14:53:15.204Z,101837.19
2023-05-10T14:55:43.224Z,101835.80
2023-05-10T14:58:11.644Z,101832.13
2023-05-10T15:00:39.538Z,101833.52
2023-05-10T15:03:07.897Z,101829.79
2023-05-10T15:05:38.314Z,101828.44
2023-05-10T15:08:06.945Z,101828.36
2023-05-10T15:10:35.304Z,101830.43
2023-05-10T15:13:04.920Z,101820.68
2023-05-10T15:15:32.987Z,101823.85
2023-05-10T15:18:01.093Z,101826.65
2023-05-10T15:20:29.090Z,101821.70
2023-05-10T15:22:57.171Z,101819.55
2023-05-10T15:25:25.131Z,101818.10
2023-05-10T15:27:53.183Z,101822.59
2023-05-10T15:30:21.796Z,101820.50
2023-05-10T15:32:49.919Z,101822.83
2023-05-10T15:35:18.699Z,101823.27
2023-05-10T15:37:49.729Z,101820.73
2023-05-10T15:40:17.960Z,101819.66
2023-05-10T15:42:45.907Z,101823.27
2023-05-10T15:45:14.250Z,101821.77
2023-05-10T15:47:42.529Z,101818.95
2023-05-10T15:50:11.333Z,101824.67
2023-05-10T15:52:39.530Z,101819.07
2023-05-10T15:55:13.218Z,101821.04
2023-05-10T15:57:42.760Z,101818.98
2023-05-10T16:00:12.754Z,101818.97
2023-05-10T16:02:42.355Z,101820.80
2023-05-10T16:05:11.107Z,101823.14
2023-05-10T16:07:40.335Z,101822.27
2023-05-10T16:10:10.654Z,101821.26
2023-05-10T16:12:39.716Z,101830.14
2023-05-10T16:15:08.827Z,101830.17
2023-05-10T16:17:37.521Z,101829.19
2023-05-10T16:20:06.634Z,101823.58
2023-05-10T16:22:35.533Z,101823.84
2023-05-10T16:25:04.008Z,101827.32
2023-05-10T16:27:33.682Z,101826.88
2023-05-10T16:30:02.152Z,101824.15
2023-05-10T16:32:30.417Z,101822.30
2023-05-10T16:34:59.881Z,101825.15
2023-05-10T16:37:28.274Z,101826.24
2023-05-10T16:39:56.529Z,101830.84
2023-05-10T16:42:25.319Z,101830.87
2023-05-10T16:44:54.722Z,101830.03
2023-05-10T16:47:23.552Z,101833.59
2023-05-10T16:49:51.579Z,101835.05
2023-05-10T16:52:19.654Z,101838.84
2023-05-10T16:54:47.614Z,101836.45
2023-05-10T16:57:15.578Z,101837.71
2023-05-10T16:59:43.548Z,101840.27
2023-05-10T17:02:11.664Z,101841.21
2023-05-10T17:04:39.894Z,101845.35
2023-05-10T17:07:08.890Z,101844.40
2023-05-10T17:09:37.058Z,101848.92
2023-05-10T17:12:06.336Z,101851.67
2023-05-10T17:14:34.804Z,101850.33
2023-05-10T17:17:03.533Z,101853.59
2023-05-10T17:19:31.715Z,101852.27
2023-05-10T17:21:59.776Z,101859.69
2023-05-10T17:24:29.883Z,101862.39
2023-05-10T17:26:57.874Z,101865.30
2023-05-10T17:29:26.035Z,101867.02
2023-05-10T17:31:54.055Z,101865.83
2023-05-10T17:34:22.140Z,101867.85
2023-05-10T17:36:50.166Z,101873.04
2023-05-10T17:39:18.283Z,101876.13
2023-05-10T17:41:46.641Z,101878.36
2023-05-10T17:44:15.268Z,101883.20
2023-05-10T17:46:43.655Z,101887.36
2023-05-10T17:49:11.825Z,101886.07
2023-05-10T17:51:41.641Z,101888.81
2023-05-10T17:54:09.903Z,101890.31
2023-05-10T17:56:38.179Z,101893.02
2023-05-10T17:59:06.372Z,101895.92
2023-05-10T18:01:35.062Z,101896.20
2023-05-10T18:04:03.313Z,101896.30
2023-05-10T18:06:31.996Z,101897.47
2023-05-10T18:08:59.961Z,101898.62
2023-05-10T18:11:28.143Z,101904.08
2023-05-10T18:13:56.490Z,101905.77
2023-05-10T18:16:24.524Z,101907.99
2023-05-10T18:18:52.830Z,101907.05
2023-05-10T18:21:21.137Z,101910.35
2023-05-10T18:23:49.106Z,101907.29
2023-05-10T18:26:18.464Z,101909.84
2023-05-10T18:28:46.473Z,101913.45
2023-05-10T18:31:14.471Z,101922.55
2023-05-10T18:33:42.822Z,101925.66
2023-05-10T18:36:11.376Z,101927.70
2023-05-10T18:38:40.248Z,101933.95
2023-05-10T18:41:10.304Z,101937.92
2023-05-10T18:43:38.378Z,101940.49
2023-05-10T18:46:06.717Z,101944.27
2023-05-10T18:48:34.885Z,101947.52
2023-05-10T18:51:03.224Z,101955.33
2023-05-10T18:53:32.655Z,101957.52
2023-05-10T18:56:00.690Z,101954.41
2023-05-10T18:58:29.779Z,101957.30
2023-05-10T19:00:58.961Z,101959.13
2023-05-10T19:03:29.699Z,101961.48
2023-05-10T19:05:57.879Z,101960.66
2023-05-10T19:08:26.050Z,101962.84
2023-05-10T19:10:54.051Z,101965.36
2023-05-10T19:13:22.130Z,101963.30
2023-05-10T19:16:05.037Z,101964.91
2023-05-10T19:18:34.257Z,101966.52
2023-05-10T19:21:04.831Z,101963.55
2023-05-10T19:23:33.923Z,101969.55
2023-05-10T19:26:02.457Z,101964.98
2023-05-10T19:28:31.216Z,101969.39
2023-05-10T19:30:59.360Z,101967.80
2023-05-10T19:33:27.336Z,101964.49
2023-05-10T19:35:56.128Z,101967.34
2023-05-10T19:38:25.324Z,101971.20
2023-05-10T19:40:58.422Z,101973.53
2023-05-10T19:43:33.914Z,101975.88
2023-05-10T19:46:03.562Z,101977.68
2023-05-10T19:48:31.934Z,101983.15
2023-05-10T19:51:02.088Z,101981.40
2023-05-10T19:53:30.733Z,101986.16
2023-05-10T19:56:06.488Z,101991.27
2023-05-10T19:58:34.665Z,101986.55
2023-05-10T20:01:03.007Z,101993.79
2023-05-10T20:03:31.260Z,101992.75
2023-05-10T20:05:59.379Z,101997.87
2023-05-10T20:08:27.719Z,101996.66
2023-05-10T20:10:59.128Z,102003.20
2023-05-10T20:13:27.412Z,102003.57
2023-05-10T20:15:56.970Z,102001.48
2023-05-10T20:18:25.709Z,102004.31
2023-05-10T20:20:55.363Z,102004.33
2023-05-10T20:23:23.560Z,102005.23
2023-05-10T20:25:51.838Z,102006.65
2023-05-10T20:28:23.088Z,102007.39
2023-05-10T20:30:53.392Z,102015.33
2023-05-10T20:33:22.614Z,102013.27
2023-05-10T20:35:51.484Z,102014.56
2023-05-10T20:38:19.656Z,102017.77
2023-05-10T20:40:47.728Z,102015.34
2023-05-10T20:43:15.674Z,102015.20
2023-05-10T20:45:43.665Z,102012.05
2023-05-10T20:48:11.731Z,102014.86
2023-05-10T20:50:39.676Z,102015.05
2023-05-10T20:53:07.769Z,102015.95
2023-05-10T20:55:35.841Z,102009.83
2023-05-10T20:58:05.083Z,102017.40
2023-05-10T21:00:33.631Z,102015.99
2023-05-10T21:03:01.615Z,102020.05
2023-05-10T21:05:29.864Z,102014.61
2023-05-10T21:07:58.035Z,102021.28
2023-05-10T21:10:28.463Z,102021.46
2023-05-10T21:12:56.944Z,102023.92
2023-05-10T21:15:25.770Z,102023.59
2023-05-10T21:17:54.741Z,102022.71
2023-05-10T21:20:23.713Z,102025.52
2023-05-10T21:22:51.688Z,102025.35
2023-05-10T21:25:19.869Z,102025.17
2023-05-10T21:27:48.027Z,102027.63
2023-05-10T21:30:16.433Z,102028.52
2023-05-10T21:32:44.756Z,102032.20
2023-05-10T21:35:12.760Z,102033.61
2023-05-10T21:37:40.729Z,102032.39
2023-05-10T21:40:09.562Z,102031.70
2023-05-10T21:42:37.489Z,102035.02
2023-05-10T21:45:05.963Z,102034.52
2023-05-10T21:47:34.250Z,102037.84
2023-05-10T21:50:02.308Z,102035.91
2023-05-10T21:52:30.276Z,102035.39
2023-05-10T21:54:58.443Z,102036.45
2023-05-10T21:57:26.514Z,102039.23
2023-05-10T21:59:54.605Z,102036.27
2023-05-10T22:02:23.224Z,102035.39
2023-05-10T22:04:51.437Z,102032.41
2023-05-10T22:07:19.515Z,102038.36
2023-05-10T22:09:47.476Z,102036.44
2023-05-10T22:12:15.546Z,102033.11
2023-05-10T22:14:43.628Z,102035.91
2023-05-10T22:17:11.724Z,102036.97
2023-05-10T22:19:39.868Z,102042.58
2023-05-10T22:22:07.985Z,102042.23
2023-05-10T22:24:36.105Z,102042.58
2023-05-10T22:27:04.928Z,102046.26
2023-05-10T22:29:33.066Z,102046.61
2023-05-10T22:32:05.832Z,102049.23
2023-05-10T22:34:34.326Z,102052.75
2023-05-10T22:37:04.112Z,102056.08
2023-05-10T22:39:33.365Z,102052.04
2023-05-10T22:42:01.405Z,102054.85
2023-05-10T22:44:29.378Z,102058.70
2023-05-10T22:46:57.677Z,102060.10
2023-05-10T22:49:25.928Z,102059.05
2023-05-10T22:51:53.896Z,102062.04
2023-05-10T22:54:21.862Z,102059.40
2023-05-10T22:56:49.974Z,102060.45
2023-05-10T22:59:18.099Z,102059.58
2023-05-10T23:01:46.340Z,102059.02
2023-05-10T23:04:15.393Z,102066.20
2023-05-10T23:06:43.549Z,102062.31
2023-05-10T23:09:11.814Z,102067.39
2023-05-10T23:11:39.850Z,102068.95
2023-05-10T23:14:07.864Z,102068.59
2023-05-10T23:16:36.082Z,102072.62
2023-05-10T23:19:04.305Z,102072.95
2023-05-10T23:21:32.750Z,102072.25
2023-05-10T23:24:00.812Z,102072.95
2023-05-10T23:26:28.833Z,102074.16
2023-05-10T23:28:56.891Z,102076.44
2023-05-10T23:31:24.997Z,102077.66
2023-05-10T23:33:53.455Z,102078.70
2023-05-10T23:36:21.721Z,102081.31
2023-05-10T23:38:49.691Z,102079.20
2023-05-10T23:41:17.778Z,102082.53
2023-05-10T23:43:45.834Z,102083.04
2023-05-10T23:46:13.803Z,102081.27
2023-05-10T23:48:42.090Z,102088.26
2023-05-10T23:51:10.043Z,102086.48
2023-05-10T23:53:38.159Z,102089.63
2023-05-10T23:56:06.710Z,102092.42
2023-05-10T23:58:34.694Z,102093.11
